Time;durP1;ratioP1;P1;durP2;ratioP2;P2;SDS_P1;SDS_P2;PMS_P1;PMS_P2;Temp;Humidity;BMP_temperature;BMP_pressure;BME280_temperature;BME280_humidity;BME280_pressure;Samples;Min_cycle;Max_cycle;Signal;HPM_P1;HPM_P2
2022/10/30 00:04:17;;;;;;;8.60;3.87;;;11.30;99.90;;;;;;10518233;28;20396;-84
2022/10/30 00:09:38;;;;;;;7.40;3.30;;;11.30;99.90;;;;;;10504374;28;20250;-86
2022/10/30 00:14:59;;;;;;;7.60;3.50;;;11.30;99.90;;;;;;10518008;28;20505;-81
2022/10/30 00:20:20;;;;;;;7.07;3.17;;;11.30;99.90;;;;;;10504086;28;20243;-79
2022/10/30 00:25:42;;;;;;;7.47;3.80;;;11.30;99.90;;;;;;10519215;28;20190;-85
2022/10/30 00:31:04;;;;;;;8.27;4.07;;;11.30;99.90;;;;;;10504269;28;20255;-78
2022/10/30 00:36:25;;;;;;;9.90;4.80;;;11.30;99.90;;;;;;10504064;28;20192;-88
2022/10/30 00:41:46;;;;;;;9.73;3.90;;;11.30;99.90;;;;;;10536304;28;20195;-79
2022/10/30 00:47:26;;;;;;;6.40;3.73;;;11.30;99.90;;;;;;10521591;28;20225;-78
2022/10/30 00:52:51;;;;;;;7.60;3.73;;;11.30;99.90;;;;;;10448227;28;20336;-87
2022/10/30 00:58:15;;;;;;;9.37;4.07;;;11.40;99.90;;;;;;10477358;28;20193;-86
2022/10/30 01:03:38;;;;;;;8.53;2.57;;;11.30;99.90;;;;;;10515755;28;20491;-88
2022/10/30 01:09:00;;;;;;;7.07;2.57;;;11.40;99.90;;;;;;10520864;28;20221;-86
2022/10/30 01:14:21;;;;;;;5.17;2.67;;;11.40;99.90;;;;;;10525893;28;20193;-89
2022/10/30 01:20:21;;;;;;;5.20;2.97;;;11.40;99.90;;;;;;10525237;28;20199;-89
2022/10/30 01:26:05;;;;;;;5.63;2.87;;;11.40;99.90;;;;;;10466337;28;20402;-89
2022/10/30 01:31:35;;;;;;;8.20;3.57;;;11.40;99.90;;;;;;10466577;28;20216;-81
2022/10/30 01:37:00;;;;;;;12.70;3.97;;;11.40;99.90;;;;;;10465071;28;20195;-86
2022/10/30 01:42:47;;;;;;;4.53;3.20;;;11.30;99.90;;;;;;10485734;28;20207;-87
2022/10/30 01:48:47;;;;;;;8.57;3.87;;;11.20;99.90;;;;;;10428151;28;20224;-86
2022/10/30 01:54:23;;;;;;;10.20;3.17;;;11.10;99.90;;;;;;10437824;28;20213;-88
2022/10/30 01:59:54;;;;;;;10.93;3.60;;;11.10;99.90;;;;;;10447916;28;20208;-80
2022/10/30 02:05:46;;;;;;;7.97;3.10;;;11.10;99.90;;;;;;10502232;28;20275;-78
2022/10/30 02:11:09;;;;;;;6.20;2.80;;;11.10;99.90;;;;;;10522556;28;20219;-78
2022/10/30 02:16:40;;;;;;;5.23;2.77;;;11.20;99.90;;;;;;10525185;28;20208;-78
2022/10/30 02:22:02;;;;;;;4.70;2.23;;;11.10;99.90;;;;;;10503664;28;20310;-79
2022/10/30 02:27:23;;;;;;;4.67;2.47;;;11.20;99.90;;;;;;10515393;28;20223;-78
2022/10/30 02:32:44;;;;;;;9.20;3.33;;;11.10;99.90;;;;;;10521658;28;20288;-84
2022/10/30 02:38:05;;;;;;;7.27;3.67;;;11.20;99.90;;;;;;10522038;28;20190;-88
2022/10/30 02:43:27;;;;;;;7.57;3.67;;;11.10;99.90;;;;;;10521701;28;20200;-82
2022/10/30 02:48:48;;;;;;;6.40;3.20;;;11.10;99.90;;;;;;10508282;28;20291;-80
2022/10/30 02:54:09;;;;;;;7.00;3.43;;;11.10;99.90;;;;;;10478992;28;20445;-78
2022/10/30 02:59:31;;;;;;;8.57;3.83;;;11.10;99.90;;;;;;10479317;28;20518;-78
2022/10/30 03:04:53;;;;;;;7.37;3.30;;;11.10;99.90;;;;;;10503905;28;20203;-78
2022/10/30 03:10:15;;;;;;;6.23;3.27;;;11.00;99.90;;;;;;10506041;28;20226;-82
2022/10/30 03:15:36;;;;;;;8.20;3.90;;;11.00;99.90;;;;;;10521076;28;20482;-79
2022/10/30 03:21:00;;;;;;;4.43;2.60;;;10.90;99.90;;;;;;10519744;28;20202;-78
2022/10/30 03:26:21;;;;;;;6.73;2.83;;;10.90;99.90;;;;;;10521276;28;20189;-78
2022/10/30 03:31:46;;;;;;;9.47;3.77;;;10.90;99.90;;;;;;10520746;28;20222;-81
2022/10/30 03:37:14;;;;;;;7.00;5.03;;;10.90;99.90;;;;;;10477335;28;20545;-80
2022/10/30 03:42:39;;;;;;;6.30;3.77;;;10.90;99.90;;;;;;10556688;28;20186;-78
2022/10/30 03:48:02;;;;;;;9.20;4.63;;;10.90;99.90;;;;;;10449871;28;20448;-84
2022/10/30 03:53:25;;;;;;;7.70;4.30;;;10.90;99.90;;;;;;10463431;28;20200;-88
2022/10/30 03:58:46;;;;;;;6.53;3.50;;;10.90;99.90;;;;;;10464551;28;20203;-78
2022/10/30 04:04:12;;;;;;;5.87;3.17;;;10.80;99.90;;;;;;10489382;28;20243;-78
2022/10/30 04:09:33;;;;;;;12.83;5.23;;;10.80;99.90;;;;;;10519182;28;20228;-78
2022/10/30 04:14:55;;;;;;;12.57;4.80;;;10.90;99.90;;;;;;10519352;28;20190;-79
2022/10/30 04:20:17;;;;;;;8.27;3.97;;;10.90;99.90;;;;;;10505109;28;20205;-85
2022/10/30 04:25:39;;;;;;;13.37;5.20;;;10.80;99.90;;;;;;10519635;28;20214;-78
2022/10/30 04:31:01;;;;;;;8.43;3.90;;;10.90;99.90;;;;;;10519126;28;20216;-88
2022/10/30 04:36:31;;;;;;;9.87;4.03;;;10.90;99.90;;;;;;10518218;28;20232;-78
2022/10/30 04:41:53;;;;;;;9.83;3.40;;;10.90;99.90;;;;;;10552126;28;20197;-89
2022/10/30 04:47:23;;;;;;;6.37;3.30;;;10.90;99.90;;;;;;10553104;28;20306;-79
2022/10/30 04:52:44;;;;;;;7.93;3.50;;;10.90;99.90;;;;;;10470714;28;20223;-80
2022/10/30 04:58:07;;;;;;;7.10;3.17;;;11.00;99.90;;;;;;10470133;28;20198;-83
2022/10/30 05:03:30;;;;;;;8.37;3.30;;;11.00;99.90;;;;;;10490261;28;20200;-86
2022/10/30 05:08:54;;;;;;;9.30;3.57;;;11.00;99.90;;;;;;10525427;28;20570;-78
2022/10/30 05:14:29;;;;;;;5.80;3.23;;;11.00;99.90;;;;;;10525019;28;20260;-78
2022/10/30 05:19:51;;;;;;;7.83;3.80;;;11.10;99.90;;;;;;10525095;28;20239;-89
2022/10/30 05:25:12;;;;;;;10.47;4.40;;;11.10;99.90;;;;;;10496823;28;20206;-83
2022/10/30 05:30:34;;;;;;;13.37;5.37;;;11.10;99.90;;;;;;10524101;28;20225;-88
2022/10/30 05:36:01;;;;;;;8.63;5.47;;;11.00;99.90;;;;;;10510106;28;20195;-82
2022/10/30 05:41:22;;;;;;;10.40;5.47;;;11.00;99.90;;;;;;10554370;28;20195;-78
2022/10/30 05:46:43;;;;;;;8.70;5.67;;;11.00;99.90;;;;;;10474703;28;20237;-80
2022/10/30 05:52:16;;;;;;;13.63;7.47;;;11.00;99.90;;;;;;10510866;28;20242;-78
2022/10/30 05:57:38;;;;;;;16.40;8.03;;;10.90;99.90;;;;;;10523123;28;20479;-79
2022/10/30 06:03:05;;;;;;;15.67;8.60;;;10.90;99.90;;;;;;10505715;28;20195;-82
2022/10/30 06:08:26;;;;;;;14.23;8.53;;;10.90;99.90;;;;;;10509013;28;20205;-79
2022/10/30 06:13:50;;;;;;;10.60;6.60;;;10.90;99.90;;;;;;10522812;28;20493;-89
2022/10/30 06:19:16;;;;;;;10.53;5.77;;;10.90;99.90;;;;;;10522620;28;20218;-78
2022/10/30 06:24:37;;;;;;;10.73;5.17;;;11.00;99.90;;;;;;10501288;28;20216;-78
2022/10/30 06:30:17;;;;;;;8.50;4.20;;;11.00;99.90;;;;;;10509425;28;20220;-83
2022/10/30 06:35:38;;;;;;;9.37;4.47;;;11.10;99.90;;;;;;10452215;28;20192;-78
2022/10/30 06:40:59;;;;;;;8.47;4.87;;;11.20;99.90;;;;;;10491463;28;20206;-88
2022/10/30 06:46:24;;;;;;;10.57;4.60;;;11.20;99.90;;;;;;10531275;28;20281;-78
2022/10/30 06:51:46;;;;;;;10.87;4.30;;;11.20;99.90;;;;;;10504151;28;20215;-78
2022/10/30 06:57:08;;;;;;;12.90;4.93;;;11.20;99.90;;;;;;10523107;28;20200;-78
2022/10/30 07:03:00;;;;;;;7.03;5.03;;;11.30;99.90;;;;;;10536732;28;20185;-88
2022/10/30 07:08:23;;;;;;;8.63;3.90;;;11.30;99.90;;;;;;10505541;28;20246;-78
2022/10/30 07:13:44;;;;;;;8.60;5.87;;;11.40;99.90;;;;;;10520003;28;20215;-78
2022/10/30 07:19:22;;;;;;;10.73;5.93;;;11.40;99.90;;;;;;10520972;28;20185;-88
2022/10/30 07:24:47;;;;;;;11.07;7.00;;;11.50;99.90;;;;;;10487220;28;20196;-87
2022/10/30 07:30:23;;;;;;;13.50;8.20;;;11.50;99.90;;;;;;10477948;28;20417;-79
2022/10/30 07:36:05;;;;;;;10.47;6.03;;;11.60;99.90;;;;;;10478198;28;20270;-88
2022/10/30 07:41:47;;;;;;;7.90;4.50;;;11.60;99.90;;;;;;10542865;28;20197;-85
2022/10/30 07:47:28;;;;;;;6.60;4.93;;;11.60;99.90;;;;;;10507640;28;20423;-89
2022/10/30 07:52:49;;;;;;;7.47;4.60;;;11.60;99.90;;;;;;10511025;28;20415;-85
2022/10/30 07:58:16;;;;;;;9.23;4.60;;;11.70;99.90;;;;;;10505547;28;20412;-78
2022/10/30 08:04:02;;;;;;;6.93;4.33;;;11.70;99.90;;;;;;10518227;28;20195;-79
2022/10/30 08:09:23;;;;;;;5.27;3.13;;;11.80;99.90;;;;;;10518729;28;20212;-78
2022/10/30 08:14:44;;;;;;;4.00;3.10;;;11.80;99.90;;;;;;10547411;28;20495;-78
2022/10/30 08:20:06;;;;;;;5.80;3.37;;;11.90;99.90;;;;;;10511630;28;20256;-79
2022/10/30 08:25:30;;;;;;;4.43;3.77;;;11.90;99.90;;;;;;10484907;28;20214;-81
2022/10/30 08:30:51;;;;;;;4.83;3.23;;;12.00;99.90;;;;;;10485534;28;20228;-78
2022/10/30 08:36:28;;;;;;;4.87;2.80;;;12.00;99.90;;;;;;10470975;28;20239;-78
2022/10/30 08:41:50;;;;;;;3.90;2.67;;;12.10;99.90;;;;;;10559577;28;20201;-81
2022/10/30 08:47:12;;;;;;;4.77;3.17;;;12.20;99.90;;;;;;10529532;28;20238;-88
2022/10/30 08:52:34;;;;;;;6.43;3.30;;;12.20;99.90;;;;;;10514955;28;20297;-88
2022/10/30 08:57:55;;;;;;;3.80;2.80;;;12.30;99.90;;;;;;10526871;28;20548;-79
2022/10/30 09:03:17;;;;;;;4.80;2.87;;;12.40;99.90;;;;;;10495727;28;20208;-78
2022/10/30 09:08:57;;;;;;;5.77;3.20;;;12.30;99.90;;;;;;10525882;28;20188;-78
2022/10/30 09:14:37;;;;;;;4.83;3.10;;;12.30;99.90;;;;;;10511201;28;20213;-81
2022/10/30 09:19:59;;;;;;;4.00;2.47;;;12.30;99.90;;;;;;10524327;28;20238;-81
2022/10/30 09:25:27;;;;;;;6.87;3.70;;;12.20;99.90;;;;;;10524918;28;20193;-78
2022/10/30 09:31:05;;;;;;;8.17;4.20;;;12.30;99.90;;;;;;10525580;28;20262;-80
2022/10/30 09:36:31;;;;;;;7.13;4.97;;;12.20;99.90;;;;;;10482159;28;20199;-78
2022/10/30 09:42:10;;;;;;;7.53;5.40;;;12.20;99.90;;;;;;10548958;28;20194;-81
2022/10/30 09:47:44;;;;;;;8.70;4.70;;;12.20;99.90;;;;;;10468818;28;20254;-81
2022/10/30 09:53:21;;;;;;;10.57;9.13;;;12.30;99.90;;;;;;10516056;28;20629;-78
2022/10/30 09:59:07;;;;;;;39.77;30.67;;;12.30;99.90;;;;;;10509056;28;20489;-89
2022/10/30 10:04:40;;;;;;;35.60;26.30;;;12.30;99.90;;;;;;10521307;28;20208;-87
2022/10/30 10:10:20;;;;;;;20.37;15.70;;;12.30;99.90;;;;;;10522588;28;20223;-87
2022/10/30 10:15:51;;;;;;;15.03;9.47;;;12.40;99.90;;;;;;10508436;28;20208;-81
2022/10/30 10:21:26;;;;;;;12.43;8.20;;;12.40;99.90;;;;;;10522087;28;20245;-88
2022/10/30 10:27:05;;;;;;;12.23;8.17;;;12.40;99.90;;;;;;10523440;28;20193;-81
2022/10/30 10:32:29;;;;;;;26.10;13.37;;;12.50;99.90;;;;;;10538299;28;20219;-88
2022/10/30 10:38:02;;;;;;;23.97;12.37;;;12.50;99.90;;;;;;10522261;28;20514;-85
2022/10/30 10:43:48;;;;;;;18.23;9.97;;;12.70;99.90;;;;;;10487320;28;20209;-78
2022/10/30 10:49:29;;;;;;;14.43;9.90;;;12.70;99.90;;;;;;10506151;28;20593;-79
2022/10/30 10:54:57;;;;;;;13.07;9.60;;;12.80;99.90;;;;;;10520966;28;20201;-81
2022/10/30 11:00:19;;;;;;;14.77;9.00;;;12.80;99.90;;;;;;10520561;28;20504;-78
2022/10/30 11:06:35;;;;;;;14.87;9.73;;;12.90;99.90;;;;;;10517651;28;20204;-83
2022/10/30 11:11:56;;;;;;;17.97;11.77;;;13.00;99.90;;;;;;10462358;28;20238;-78
2022/10/30 11:17:31;;;;;;;23.00;12.03;;;13.00;99.90;;;;;;10462988;28;20391;-88
2022/10/30 11:22:52;;;;;;;23.43;13.30;;;13.10;99.90;;;;;;10462698;28;20204;-78
2022/10/30 11:28:32;;;;;;;16.70;9.10;;;13.20;99.90;;;;;;10476582;28;20282;-79
2022/10/30 11:33:54;;;;;;;16.30;7.50;;;13.20;99.90;;;;;;10480350;28;20241;-78
2022/10/30 11:39:26;;;;;;;10.77;6.27;;;13.10;99.90;;;;;;10482956;28;20201;-77
2022/10/30 11:44:49;;;;;;;12.73;7.50;;;13.20;99.90;;;;;;10500560;28;20215;-79
2022/10/30 11:50:16;;;;;;;10.17;6.33;;;13.20;99.90;;;;;;10523904;28;20220;-84
2022/10/30 11:55:48;;;;;;;8.87;6.50;;;13.30;99.90;;;;;;10520412;28;20199;-89
2022/10/30 12:01:15;;;;;;;16.77;11.37;;;13.30;99.90;;;;;;10520024;28;20271;-87
2022/10/30 12:06:36;;;;;;;29.50;15.70;;;13.30;99.90;;;;;;10514380;28;20199;-87
2022/10/30 12:11:57;;;;;;;19.33;10.63;;;13.30;99.90;;;;;;10505175;28;20220;-79
2022/10/30 12:17:21;;;;;;;12.80;7.30;;;13.30;99.90;;;;;;10519433;28;20523;-78
2022/10/30 12:22:42;;;;;;;9.23;6.20;;;13.20;99.90;;;;;;10519427;28;20205;-86
2022/10/30 12:28:05;;;;;;;9.37;6.13;;;13.20;99.90;;;;;;10519492;28;20190;-89
2022/10/30 12:33:54;;;;;;;10.03;7.00;;;13.20;99.90;;;;;;10519219;28;20218;-79
2022/10/30 12:39:44;;;;;;;11.87;8.47;;;13.20;99.90;;;;;;10433072;28;20245;-79
2022/10/30 12:45:05;;;;;;;17.37;11.53;;;13.20;99.90;;;;;;10297501;28;20287;-88
2022/10/30 12:50:43;;;;;;;18.33;12.33;;;13.30;99.90;;;;;;10315122;28;20427;-80
2022/10/30 12:56:13;;;;;;;28.83;17.60;;;13.30;99.90;;;;;;10351297;28;20204;-78
2022/10/30 13:01:44;;;;;;;29.07;17.87;;;13.40;99.90;;;;;;10319816;28;20210;-87
2022/10/30 13:07:26;;;;;;;24.30;15.60;;;13.50;99.90;;;;;;10316749;28;20281;-78
2022/10/30 13:12:53;;;;;;;14.25;9.85;;;13.80;99.90;;;;;;10325916;28;20256;-79
2022/10/30 13:18:17;;;;;;;17.77;9.45;;;14.20;99.90;;;;;;10387536;28;20213;-78
2022/10/30 13:23:45;;;;;;;17.58;9.45;;;14.50;99.90;;;;;;10525610;28;20239;-79
2022/10/30 13:29:27;;;;;;;14.38;8.02;;;15.00;99.90;;;;;;10525314;28;20240;-78
2022/10/30 13:35:33;;;;;;;8.60;6.13;;;15.20;99.90;;;;;;10524958;28;20484;-88
2022/10/30 13:41:03;;;;;;;10.23;6.38;;;15.30;99.90;;;;;;10551061;28;20193;-85
2022/10/30 13:46:51;;;;;;;9.75;6.38;;;15.40;99.90;;;;;;10536588;28;20259;-85
2022/10/30 13:52:21;;;;;;;8.93;5.25;;;15.40;99.90;;;;;;10502174;28;20304;-78
2022/10/30 13:57:45;;;;;;;8.82;5.35;;;15.40;99.90;;;;;;10483558;28;20238;-79
2022/10/30 14:03:36;;;;;;;9.90;5.00;;;15.20;99.90;;;;;;10509260;28;20244;-85
2022/10/30 14:09:08;;;;;;;9.02;5.53;;;15.10;99.90;;;;;;10478929;28;20602;-77
2022/10/30 14:14:30;;;;;;;10.48;5.30;;;15.10;99.90;;;;;;10477965;28;20232;-78
2022/10/30 14:20:09;;;;;;;7.60;4.40;;;15.10;99.90;;;;;;10460856;28;20337;-83
2022/10/30 14:25:33;;;;;;;5.70;4.50;;;15.10;99.90;;;;;;10465949;28;20417;-79
2022/10/30 14:31:12;;;;;;;4.45;3.40;;;15.00;99.90;;;;;;10459891;28;20249;-78
2022/10/30 14:36:33;;;;;;;6.73;4.20;;;14.90;99.90;;;;;;10470528;28;20211;-82
2022/10/30 14:42:24;;;;;;;5.53;3.93;;;14.80;99.90;;;;;;10503175;28;20199;-82
2022/10/30 14:48:20;;;;;;;14.10;8.75;;;14.70;99.90;;;;;;10496966;28;20254;-78
2022/10/30 14:54:18;;;;;;;20.20;11.30;;;14.60;99.90;;;;;;10486443;28;20443;-87
2022/10/30 14:59:39;;;;;;;25.45;13.50;;;14.50;99.90;;;;;;10507749;28;20185;-78
2022/10/30 15:05:23;;;;;;;12.77;8.47;;;14.30;99.90;;;;;;10520899;28;20531;-86
2022/10/30 15:10:59;;;;;;;11.90;7.82;;;14.20;99.90;;;;;;10462425;28;20245;-87
2022/10/30 15:16:21;;;;;;;15.83;9.47;;;14.10;99.90;;;;;;10477172;28;20278;-87
2022/10/30 15:21:45;;;;;;;16.63;10.90;;;14.00;99.90;;;;;;10468257;28;20203;-87
2022/10/30 15:27:17;;;;;;;17.83;12.37;;;13.80;99.90;;;;;;10434245;28;20215;-85
2022/10/30 15:32:39;;;;;;;20.07;12.33;;;13.70;99.90;;;;;;10434378;28;20227;-77
2022/10/30 15:38:06;;;;;;;17.40;11.57;;;13.60;99.90;;;;;;10436032;28;20230;-88
2022/10/30 15:43:41;;;;;;;15.50;10.60;;;13.40;99.90;;;;;;10495712;28;20279;-84
2022/10/30 15:49:02;;;;;;;17.63;9.90;;;13.30;99.90;;;;;;10493689;28;20230;-81
2022/10/30 15:54:26;;;;;;;16.87;10.60;;;13.10;99.90;;;;;;10464128;28;20352;-81
2022/10/30 15:59:55;;;;;;;15.93;10.03;;;13.00;99.90;;;;;;10495618;28;20209;-83
2022/10/30 16:05:21;;;;;;;19.17;11.93;;;12.80;99.90;;;;;;10521329;28;20202;-79
2022/10/30 16:10:44;;;;;;;22.83;12.73;;;12.60;99.90;;;;;;10519688;28;20261;-87
2022/10/30 16:16:09;;;;;;;22.17;12.80;;;12.50;99.90;;;;;;10550872;28;20215;-77
2022/10/30 16:21:30;;;;;;;24.67;12.93;;;12.40;99.90;;;;;;10534792;28;20184;-78
2022/10/30 16:27:22;;;;;;;24.83;15.40;;;12.20;99.90;;;;;;10505024;28;20226;-77
2022/10/30 16:32:51;;;;;;;31.93;17.70;;;12.20;99.90;;;;;;10516973;28;20231;-77
2022/10/30 16:38:12;;;;;;;34.63;18.50;;;12.10;99.90;;;;;;10526129;28;20217;-80
2022/10/30 16:43:34;;;;;;;36.37;21.47;;;12.00;99.90;;;;;;10532424;28;20204;-84
2022/10/30 16:48:58;;;;;;;50.23;24.50;;;11.90;99.90;;;;;;10526688;28;20520;-77
2022/10/30 16:54:27;;;;;;;50.90;26.80;;;11.90;99.90;;;;;;10471808;28;20410;-78
2022/10/30 16:59:51;;;;;;;71.80;42.17;;;11.80;99.90;;;;;;10498804;28;20201;-79
2022/10/30 17:05:24;;;;;;;71.00;44.00;;;11.60;99.90;;;;;;10525326;28;20205;-78
2022/10/30 17:11:04;;;;;;;74.07;44.80;;;11.60;99.90;;;;;;10525306;28;20227;-76
2022/10/30 17:16:36;;;;;;;71.40;40.00;;;11.50;99.90;;;;;;10526664;28;20201;-80
2022/10/30 17:22:09;;;;;;;73.37;41.03;;;11.50;99.90;;;;;;10526379;28;20272;-85
2022/10/30 17:27:45;;;;;;;75.20;42.00;;;11.50;99.90;;;;;;10525392;28;20434;-78
2022/10/30 17:33:36;;;;;;;61.60;37.50;;;11.40;99.90;;;;;;10524336;28;20579;-78
2022/10/30 17:38:57;;;;;;;72.30;42.60;;;11.30;99.90;;;;;;10533043;28;20195;-79
2022/10/30 17:44:21;;;;;;;62.87;41.07;;;11.30;99.90;;;;;;10537613;28;20200;-84
2022/10/30 17:49:43;;;;;;;79.07;45.27;;;11.30;99.90;;;;;;10521859;28;20235;-78
2022/10/30 17:55:19;;;;;;;82.80;48.73;;;11.20;99.90;;;;;;10482625;28;20213;-88
2022/10/30 18:00:41;;;;;;;111.53;65.70;;;11.20;99.90;;;;;;10475683;28;20499;-78
2022/10/30 18:06:04;;;;;;;119.40;74.20;;;11.10;99.90;;;;;;10523454;28;20213;-84
2022/10/30 18:11:26;;;;;;;121.83;70.33;;;11.10;99.90;;;;;;10522555;28;20224;-79
2022/10/30 18:16:47;;;;;;;111.73;62.53;;;11.00;99.90;;;;;;10508640;28;20195;-82
2022/10/30 18:22:12;;;;;;;118.00;62.73;;;11.00;99.90;;;;;;10481683;28;20491;-86
2022/10/30 18:27:33;;;;;;;113.50;65.30;;;10.90;99.90;;;;;;10481041;28;20218;-79
2022/10/30 18:32:55;;;;;;;111.80;67.00;;;10.80;99.90;;;;;;10481165;28;20230;-78
2022/10/30 18:38:17;;;;;;;124.27;69.17;;;10.80;99.90;;;;;;10487632;28;20190;-83
2022/10/30 18:43:38;;;;;;;125.57;70.27;;;10.70;99.90;;;;;;10556175;28;20541;-84
2022/10/30 18:49:01;;;;;;;122.30;69.37;;;;;;;;;;10520986;28;20224;-78
2022/10/30 18:54:22;;;;;;;129.27;68.33;;;10.60;99.90;;;;;;10480290;28;20297;-78
2022/10/30 18:59:43;;;;;;;133.60;71.23;;;10.50;99.90;;;;;;10481702;28;20194;-88
2022/10/30 19:05:42;;;;;;;123.87;69.63;;;10.50;99.90;;;;;;10510839;28;20260;-82
2022/10/30 19:11:03;;;;;;;116.20;62.80;;;10.50;99.90;;;;;;10522553;28;20228;-78
2022/10/30 19:16:24;;;;;;;106.13;54.97;;;10.40;99.90;;;;;;10521390;28;20195;-85
2022/10/30 19:21:45;;;;;;;94.37;52.03;;;10.40;99.90;;;;;;10507025;28;20498;-88
2022/10/30 19:27:06;;;;;;;99.10;52.23;;;10.30;99.90;;;;;;10521002;28;20231;-79
2022/10/30 19:32:27;;;;;;;96.13;50.10;;;10.30;99.90;;;;;;10519386;28;20249;-87
2022/10/30 19:37:49;;;;;;;100.43;52.70;;;10.20;99.90;;;;;;10519744;28;20197;-87
2022/10/30 19:43:10;;;;;;;106.17;55.20;;;10.30;99.90;;;;;;10482454;28;20206;-78
2022/10/30 19:48:31;;;;;;;108.30;58.40;;;10.10;99.90;;;;;;10519136;28;20422;-86
2022/10/30 19:54:12;;;;;;;99.10;55.63;;;10.30;99.90;;;;;;10478329;28;20528;-88
2022/10/30 19:59:34;;;;;;;102.03;55.17;;;10.10;99.90;;;;;;10478548;28;20199;-88
2022/10/30 20:04:55;;;;;;;96.70;54.20;;;10.10;99.90;;;;;;10500117;28;20210;-87
2022/10/30 20:10:19;;;;;;;96.33;51.47;;;10.10;99.90;;;;;;10478137;28;20221;-88
2022/10/30 20:15:40;;;;;;;89.73;46.37;;;10.10;99.90;;;;;;10484924;28;20204;-78
2022/10/30 20:21:09;;;;;;;75.10;41.27;;;10.10;99.90;;;;;;10517591;28;20236;-81
2022/10/30 20:26:30;;;;;;;81.57;44.53;;;10.10;99.90;;;;;;10512791;28;20207;-79
2022/10/30 20:31:51;;;;;;;81.63;47.10;;;9.90;99.90;;;;;;10524912;28;20223;-78
2022/10/30 20:37:12;;;;;;;91.03;51.47;;;9.90;99.90;;;;;;10516077;28;20220;-79
2022/10/30 20:42:33;;;;;;;83.10;49.00;;;9.90;99.90;;;;;;10550750;28;20224;-78
2022/10/30 20:47:56;;;;;;;87.73;50.17;;;9.90;99.90;;;;;;10485185;28;20919;-78
2022/10/30 20:53:18;;;;;;;88.23;48.83;;;9.90;99.90;;;;;;10485550;28;20224;-86
2022/10/30 20:58:39;;;;;;;91.33;48.67;;;9.80;99.90;;;;;;10501116;28;20222;-78
2022/10/30 21:04:01;;;;;;;70.03;45.00;;;9.80;99.90;;;;;;10531582;28;20189;-79
2022/10/30 21:09:22;;;;;;;77.27;45.33;;;9.90;99.90;;;;;;10535743;28;20185;-79
2022/10/30 21:14:44;;;;;;;90.43;52.83;;;9.90;99.90;;;;;;10510556;28;20234;-78
2022/10/30 21:20:05;;;;;;;74.00;47.10;;;10.00;99.90;;;;;;10525799;28;20217;-78
2022/10/30 21:25:27;;;;;;;73.57;41.87;;;10.00;99.90;;;;;;10523894;28;20189;-80
2022/10/30 21:30:48;;;;;;;65.70;40.70;;;10.10;99.90;;;;;;10512161;28;20200;-78
2022/10/30 21:36:14;;;;;;;64.03;39.20;;;10.10;99.90;;;;;;10525661;28;20194;-78
2022/10/30 21:41:35;;;;;;;68.90;41.23;;;10.20;99.90;;;;;;10541335;28;20473;-80
2022/10/30 21:46:56;;;;;;;73.83;43.70;;;10.20;99.90;;;;;;10567526;28;20234;-78
2022/10/30 21:52:18;;;;;;;70.83;44.93;;;10.20;99.90;;;;;;10505965;28;20557;-83
2022/10/30 21:57:39;;;;;;;71.90;43.53;;;10.30;99.90;;;;;;10484110;28;20196;-89
2022/10/30 22:03:00;;;;;;;77.03;45.93;;;10.40;99.90;;;;;;10532205;28;20191;-79
2022/10/30 22:08:21;;;;;;;86.83;49.03;;;10.50;99.90;;;;;;10525456;28;20185;-87
2022/10/30 22:13:42;;;;;;;77.10;47.10;;;10.50;99.90;;;;;;10523517;28;20233;-78
2022/10/30 22:19:06;;;;;;;74.53;47.70;;;10.60;99.90;;;;;;10525272;28;20356;-83
2022/10/30 22:24:27;;;;;;;87.60;50.27;;;10.60;99.90;;;;;;10523848;28;20201;-86
2022/10/30 22:29:48;;;;;;;74.43;45.00;;;10.60;99.90;;;;;;10526572;28;20232;-86
2022/10/30 22:35:09;;;;;;;73.90;47.30;;;10.50;99.90;;;;;;10524218;28;20478;-79
2022/10/30 22:40:30;;;;;;;76.53;44.77;;;10.60;99.90;;;;;;10560001;28;20218;-79
2022/10/30 22:45:52;;;;;;;76.33;46.37;;;10.60;99.90;;;;;;10522504;28;20231;-77
2022/10/30 22:51:15;;;;;;;69.20;40.67;;;10.70;99.90;;;;;;10513156;28;20197;-84
2022/10/30 22:56:38;;;;;;;81.30;41.37;;;10.70;99.90;;;;;;10507178;28;20421;-83
2022/10/30 23:01:59;;;;;;;72.77;41.23;;;10.60;99.90;;;;;;10521073;28;20494;-78
2022/10/30 23:07:20;;;;;;;82.93;39.63;;;10.60;99.90;;;;;;10522213;28;20196;-83
2022/10/30 23:12:41;;;;;;;81.23;37.57;;;10.60;99.90;;;;;;10520524;28;20235;-88
2022/10/30 23:18:02;;;;;;;76.53;39.37;;;10.70;99.90;;;;;;10520321;28;20199;-78
2022/10/30 23:23:24;;;;;;;74.63;38.67;;;10.60;99.90;;;;;;10520147;28;20210;-78
2022/10/30 23:28:46;;;;;;;65.17;35.07;;;10.60;99.90;;;;;;10505853;28;20200;-79
2022/10/30 23:34:11;;;;;;;71.33;33.53;;;10.70;99.90;;;;;;10519485;28;20452;-78
2022/10/30 23:39:32;;;;;;;62.97;32.40;;;10.70;99.90;;;;;;10532791;28;20354;-80
2022/10/30 23:44:53;;;;;;;64.93;30.90;;;10.80;99.90;;;;;;10543195;28;20453;-79
2022/10/30 23:50:14;;;;;;;53.00;28.50;;;10.90;99.90;;;;;;10520128;28;20498;-80
2022/10/30 23:55:35;;;;;;;60.30;29.60;;;10.90;99.90;;;;;;10511547;28;20221;-80
